Franklin, NC

4:21 PM EDT on August 21, 2017 (GMT -0400)
Franklin

Weather History for K1A5 - October, 2012

Change the Weather History Date:

Sunday, October 21, 2012

  Actual Average (KTOC) Record (KTOC)
Temperature  
Mean Temperature 52 °F -  
Max Temperature 71 °F 70 °F 74 °F (2014)
Min Temperature 32 °F 45 °F 39 °F (2015)
Degree Days  
Heating Degree Days 14    
Growing Degree Days 2 (Base 50)    
Moisture  
Dew Point 36 °F    
Average Humidity 75    
Maximum Humidity 100    
Minimum Humidity 23    
Precipitation  
Precipitation 0.00 in - - ()
Sea Level Pressure  
Sea Level Pressure 30.13 in    
Wind  
Wind Speed 1 mph (WNW)    
Max Wind Speed 8 mph    
Max Gust Speed -    
Visibility 7 miles    
Events Fog    
Averages and records for this station are not official NWS values.
T = Trace of Precipitation, MM = Missing Value Source: NWS Daily Summary

Daily Weather History Graph

Daily Weather History Graph

Search for Another Location

Airport or City:

Trip Planner

Search our weather history database for the weather conditions in past years. The results will help you decide how hot, cold, wet, or windy it might be!

Date:

Astronomy

Oct. 21, 2012 Rise Set
Actual Time 7:45 AM EDT 6:50 PM EDT
Civil Twilight 7:19 AM EDT 7:16 PM EDT
Nautical Twilight 6:49 AM EDT 7:45 PM EDT
Astronomical Twilight 6:20 AM EDT 8:15 PM EDT
Moon 2:01 PM EDT No Moon Set
Length of Visible Light 11h 56m
Length of Day
11h 05m
Waxing Crescent, 45% of the Moon is Illuminated
Oct 21
Waxing Crescent
Oct 21
First Quarter
Oct 29
Full
Nov 6
Last Quarter
Nov 13
New

Hourly Weather History & Observations

Time (EDT) Temp. Dew Point Humidity Pressure Visibility Wind Dir Wind Speed Gust Speed Precip Events Conditions
12:15 AM 37.4 °F 35.6 °F 93% 30.03 in 7.0 mi Calm Calm - N/A   Clear
12:35 AM 37.4 °F 35.6 °F 93% 30.03 in 7.0 mi Calm Calm - N/A   Clear
12:55 AM 37.4 °F 35.6 °F 93% 30.04 in 5.0 mi Calm Calm - N/A   Clear
1:15 AM 35.6 °F 33.8 °F 93% 30.04 in 7.0 mi Calm Calm - N/A   Clear
1:35 AM 37.4 °F 35.6 °F 93% 30.04 in 7.0 mi Calm Calm - N/A   Clear
1:55 AM 35.6 °F 33.8 °F 93% 30.05 in 4.0 mi Calm Calm - N/A   Clear
2:15 AM 35.6 °F 33.8 °F 93% 30.05 in 7.0 mi Calm Calm - N/A   Clear
2:35 AM 35.6 °F 33.8 °F 93% 30.05 in 7.0 mi Calm Calm - N/A   Clear
2:55 AM 33.8 °F 33.8 °F 100% 30.06 in 5.0 mi Calm Calm - N/A   Clear
3:15 AM 33.8 °F 32.0 °F 93% 30.07 in 7.0 mi Calm Calm - N/A   Clear
3:35 AM 33.8 °F 33.8 °F 100% 30.08 in 4.0 mi Calm Calm - N/A   Clear
3:55 AM 33.8 °F 32.0 °F 93% 30.08 in 4.0 mi Calm Calm - N/A   Clear
4:15 AM 32.0 °F 32.0 °F 100% 30.08 in 10.0 mi Calm Calm - N/A   Clear
4:35 AM 33.8 °F 32.0 °F 93% 30.08 in 5.0 mi Calm Calm - N/A   Clear
5:15 AM 33.8 °F 32.0 °F 93% 30.10 in 5.0 mi Calm Calm - N/A   Mostly Cloudy
5:35 AM 32.0 °F 32.0 °F 100% 30.10 in 7.0 mi Calm Calm - N/A   Overcast
5:55 AM 33.8 °F 32.0 °F 93% 30.11 in 4.0 mi Calm Calm - N/A   Overcast
6:15 AM 33.8 °F 32.0 °F 93% 30.12 in 2.5 mi Calm Calm - N/A   Overcast
6:35 AM 32.0 °F 32.0 °F 100% 30.13 in 0.8 mi Calm Calm - N/A   Mist
6:55 AM 32.0 °F 32.0 °F 100% 30.14 in 0.5 mi Calm Calm - N/A Fog Fog
7:15 AM 32.0 °F 32.0 °F 100% 30.15 in 0.5 mi Calm Calm - N/A Fog Fog
7:35 AM 32.0 °F 32.0 °F 100% 30.16 in 0.5 mi Calm Calm - N/A Fog Fog
7:55 AM 33.8 °F 32.0 °F 93% 30.16 in 0.5 mi Calm Calm - N/A Fog Fog
8:15 AM 33.8 °F 33.8 °F 100% 30.17 in 0.2 mi Calm Calm - N/A Fog Fog
8:35 AM 33.8 °F 33.8 °F 100% 30.18 in 0.2 mi Calm Calm - N/A Fog Fog
8:55 AM 35.6 °F 35.6 °F 100% 30.19 in 0.2 mi Calm Calm - N/A Fog Fog
9:15 AM 37.4 °F 35.6 °F 93% 30.19 in 0.2 mi Calm Calm - N/A Fog Fog
9:35 AM 37.4 °F 37.4 °F 100% 30.20 in 0.2 mi Calm Calm - N/A Fog Fog
9:55 AM 39.2 °F 37.4 °F 93% 30.20 in 0.2 mi Calm Calm - N/A Fog Fog
10:15 AM 41.0 °F 39.2 °F 93% 30.19 in 0.5 mi Calm Calm - N/A Fog Fog
10:35 AM 41.0 °F 41.0 °F 100% 30.19 in 3.0 mi Calm Calm - N/A   Mostly Cloudy
10:55 AM 44.6 °F 42.8 °F 93% 30.19 in 10.0 mi Calm Calm - N/A   Scattered Clouds
11:15 AM 48.2 °F 46.4 °F 93% 30.18 in 10.0 mi Calm Calm - N/A   Clear
11:35 AM 51.8 °F 42.8 °F 71% 30.18 in 10.0 mi Calm Calm - N/A   Clear
11:55 AM 53.6 °F 41.0 °F 62% 30.18 in 10.0 mi Calm Calm - N/A   Clear
12:15 PM 57.2 °F 41.0 °F 55% 30.17 in 10.0 mi Calm Calm - N/A   Clear
12:35 PM 59.0 °F 41.0 °F 51% 30.16 in 10.0 mi Calm Calm - N/A   Clear
12:55 PM 60.8 °F 41.0 °F 48% 30.16 in 10.0 mi Calm Calm - N/A   Clear
1:15 PM 62.6 °F 39.2 °F 42% 30.15 in 10.0 mi Calm Calm - N/A   Clear
1:35 PM 64.4 °F 37.4 °F 37% 30.14 in 10.0 mi Calm Calm - N/A   Clear
1:55 PM 64.4 °F 37.4 °F 37% 30.13 in 10.0 mi Calm Calm - N/A   Clear
2:15 PM 68.0 °F 37.4 °F 33% 30.12 in 10.0 mi Calm Calm - N/A   Clear
2:35 PM 69.8 °F 37.4 °F 31% 30.12 in 7.0 mi Calm Calm - N/A   Clear
2:55 PM 69.8 °F 35.6 °F 28% 30.11 in 4.0 mi ENE 6.9 mph - N/A   Haze
3:15 PM 71.6 °F 35.6 °F 27% 30.11 in 5.0 mi WNW 8.1 mph - N/A   Haze
3:35 PM 71.6 °F 35.6 °F 27% 30.11 in 10.0 mi ENE 4.6 mph - N/A   Clear
3:55 PM 71.6 °F 35.6 °F 27% 30.11 in 10.0 mi WNW 6.9 mph - N/A   Clear
4:15 PM 71.6 °F 33.8 °F 25% 30.11 in 10.0 mi WNW 3.5 mph - N/A   Clear
4:35 PM 71.6 °F 33.8 °F 25% 30.11 in 10.0 mi NW 4.6 mph - N/A   Clear
4:55 PM 71.6 °F 32.0 °F 23% 30.11 in 10.0 mi WNW 6.9 mph - N/A   Clear
5:15 PM 69.8 °F 32.0 °F 25% 30.11 in 10.0 mi NW 5.8 mph - N/A   Clear
5:35 PM 69.8 °F 32.0 °F 25% 30.12 in 10.0 mi WNW 5.8 mph - N/A   Clear
5:55 PM 69.8 °F 32.0 °F 25% 30.12 in 10.0 mi WNW 4.6 mph - N/A   Clear
6:15 PM 68.0 °F 33.8 °F 28% 30.13 in 10.0 mi WNW 4.6 mph - N/A   Clear
6:35 PM 64.4 °F 37.4 °F 37% 30.13 in 10.0 mi Calm Calm - N/A   Clear
6:55 PM 53.6 °F 42.8 °F 67% 30.14 in 10.0 mi WSW 4.6 mph - N/A   Clear
7:15 PM 51.8 °F 42.8 °F 71% 30.15 in 10.0 mi Calm Calm - N/A   Clear
7:35 PM 50.0 °F 42.8 °F 76% 30.15 in 10.0 mi West 4.6 mph - N/A   Clear
7:55 PM 48.2 °F 42.8 °F 82% 30.16 in 10.0 mi West 4.6 mph - N/A   Clear
8:15 PM 48.2 °F 41.0 °F 76% 30.16 in 10.0 mi Calm Calm - N/A   Clear
8:35 PM 44.6 °F 41.0 °F 87% 30.17 in 10.0 mi Calm Calm - N/A   Clear
8:55 PM 44.6 °F 41.0 °F 87% 30.17 in 10.0 mi Calm Calm - N/A   Clear
9:15 PM 44.6 °F 39.2 °F 81% 30.18 in 10.0 mi Calm Calm - N/A   Clear
9:35 PM 42.8 °F 41.0 °F 93% 30.18 in 10.0 mi Calm Calm - N/A   Clear
9:55 PM 42.8 °F 39.2 °F 87% 30.19 in 10.0 mi Calm Calm - N/A   Clear
10:15 PM 41.0 °F 39.2 °F 93% 30.19 in 10.0 mi Calm Calm - N/A   Clear
10:35 PM 41.0 °F 37.4 °F 87% 30.19 in 10.0 mi Calm Calm - N/A   Clear
10:55 PM 41.0 °F 37.4 °F 87% 30.20 in 10.0 mi Calm Calm - N/A   Clear
11:15 PM 39.2 °F 37.4 °F 93% 30.21 in 10.0 mi Calm Calm - N/A   Clear
11:35 PM 39.2 °F 37.4 °F 93% 30.21 in 10.0 mi Calm Calm - N/A   Clear
11:55 PM 37.4 °F 37.4 °F 100% 30.21 in 7.0 mi Calm Calm - N/A   Clear